Time;durP1;ratioP1;P1;durP2;ratioP2;P2;SDS_P1;SDS_P2;PMS_P1;PMS_P2;Temp;Humidity;BMP_temperature;BMP_pressure;BME280_temperature;BME280_humidity;BME280_pressure;Samples;Min_cycle;Max_cycle;Signal;HPM_P1;HPM_P2
2022/01/30 00:01:05;;;;;;;7.83;2.77;;;7.90;99.90;;;8.38;100.00;99035.72;5069101;28;20457;-83
2022/01/30 00:03:36;;;;;;;7.30;2.60;;;7.90;99.90;;;8.40;100.00;99039.00;5061266;28;20461;-83
2022/01/30 00:06:06;;;;;;;7.70;2.73;;;7.90;99.90;;;8.40;100.00;99046.81;5069430;28;20480;-83
2022/01/30 00:08:35;;;;;;;3.93;2.50;;;7.90;99.90;;;8.41;100.00;99040.66;5079693;28;20459;-83
2022/01/30 00:11:12;;;;;;;9.63;2.60;;;7.90;99.90;;;8.42;100.00;99044.91;5079600;28;20543;-83
2022/01/30 00:13:42;;;;;;;5.27;2.57;;;7.90;99.90;;;8.38;100.00;99040.13;5069888;28;20474;-83
2022/01/30 00:16:14;;;;;;;6.20;3.00;;;7.90;99.90;;;8.39;100.00;99045.19;5073025;28;20508;-83
2022/01/30 00:18:52;;;;;;;7.30;3.23;;;7.90;99.90;;;8.38;100.00;99051.38;5076302;28;20466;-83
2022/01/30 00:21:33;;;;;;;9.60;3.07;;;7.80;99.90;;;8.41;100.00;99058.88;5080125;28;21037;-83
2022/01/30 00:24:06;;;;;;;8.93;3.00;;;7.90;99.90;;;8.42;100.00;99054.50;5076315;28;20460;-83
2022/01/30 00:26:39;;;;;;;12.40;3.27;;;7.90;99.90;;;8.40;100.00;99066.88;5073263;28;20499;-83
2022/01/30 00:29:11;;;;;;;9.23;3.07;;;7.90;99.90;;;8.41;100.00;99061.50;5073917;28;20558;-83
2022/01/30 00:31:40;;;;;;;14.73;3.43;;;8.00;99.90;;;8.38;100.00;99064.41;5077252;28;20983;-83
2022/01/30 00:34:29;;;;;;;18.50;3.17;;;7.90;99.90;;;8.31;100.00;99065.13;5073428;28;20459;-82
2022/01/30 00:37:02;;;;;;;14.10;3.67;;;7.80;99.90;;;8.33;100.00;99071.81;5074464;28;20455;-83
2022/01/30 00:39:31;;;;;;;9.00;2.97;;;7.80;99.90;;;8.37;100.00;99060.16;5079571;28;20467;-83
2022/01/30 00:42:03;;;;;;;10.07;3.07;;;7.90;99.90;;;8.35;100.00;99061.28;5073191;28;20466;-83
2022/01/30 00:44:34;;;;;;;16.83;3.07;;;7.90;99.90;;;8.32;100.00;99056.34;5072285;28;20802;-83
2022/01/30 00:47:05;;;;;;;12.43;3.07;;;7.80;99.90;;;8.29;100.00;99054.88;5077270;28;21051;-83
2022/01/30 00:49:35;;;;;;;11.10;2.43;;;7.70;99.90;;;8.33;100.00;99052.78;5069080;28;20658;-83
2022/01/30 00:52:07;;;;;;;7.83;2.90;;;7.80;99.90;;;8.30;100.00;99053.88;5066894;28;20551;-83
2022/01/30 00:54:37;;;;;;;16.90;2.70;;;7.90;99.90;;;8.28;100.00;99049.75;5068832;28;20683;-83
2022/01/30 00:57:09;;;;;;;14.90;3.57;;;7.80;99.90;;;8.29;100.00;99054.03;5066822;28;21045;-83
2022/01/30 00:59:38;;;;;;;13.00;3.23;;;7.80;99.90;;;8.25;100.00;99052.66;5071924;28;20503;-83
2022/01/30 01:02:09;;;;;;;10.07;3.00;;;7.80;99.90;;;8.25;100.00;99055.28;5068070;28;20942;-83
2022/01/30 01:04:40;;;;;;;12.23;3.00;;;7.80;99.90;;;8.25;100.00;99065.69;5067476;28;20459;-83
2022/01/30 01:07:15;;;;;;;9.97;3.20;;;7.70;99.90;;;8.28;100.00;99071.47;5067216;28;21039;-83
2022/01/30 01:09:53;;;;;;;14.30;3.10;;;7.70;99.90;;;8.30;100.00;99064.31;5066161;28;20490;-83
2022/01/30 01:23:24;;;;;;;11.47;2.90;;;7.80;99.90;;;8.21;100.00;99067.78;5068104;28;21059;-84
2022/01/30 01:23:57;;;;;;;18.37;3.57;;;7.80;99.90;;;8.25;100.00;99066.53;5068200;28;20994;-83
2022/01/30 01:26:27;;;;;;;7.57;2.70;;;7.80;99.90;;;8.18;100.00;99073.28;5073830;28;20801;-83
2022/01/30 01:28:59;;;;;;;8.63;3.03;;;7.70;99.90;;;8.17;100.00;99079.44;5073123;28;20974;-83
2022/01/30 01:31:29;;;;;;;9.73;3.13;;;7.60;99.90;;;8.15;100.00;99070.16;5071613;28;20464;-83
2022/01/30 01:34:12;;;;;;;13.23;3.20;;;7.60;99.90;;;8.16;100.00;99071.78;5072159;28;20455;-83
2022/01/30 01:36:43;;;;;;;7.07;2.80;;;7.60;99.90;;;8.13;100.00;99072.88;5081920;28;20550;-83
2022/01/30 01:39:13;;;;;;;10.70;2.60;;;7.60;99.90;;;8.09;100.00;99077.56;5084055;28;20467;-83
2022/01/30 01:41:43;;;;;;;16.60;3.50;;;7.50;99.90;;;8.11;100.00;99080.03;5078374;28;20491;-83
2022/01/30 01:44:23;;;;;;;16.70;4.17;;;7.50;99.90;;;8.13;100.00;99078.09;5074465;28;20478;-83
2022/01/30 01:46:53;;;;;;;17.47;3.50;;;7.60;99.90;;;8.12;100.00;99079.09;5075486;28;20560;-83
2022/01/30 01:49:28;;;;;;;15.60;3.57;;;7.60;99.90;;;8.08;100.00;99081.16;5080781;28;20471;-83
2022/01/30 01:52:18;;;;;;;9.83;2.40;;;7.60;99.90;;;8.09;100.00;99076.75;5078443;28;20876;-82
2022/01/30 01:54:50;;;;;;;15.83;2.70;;;7.50;99.90;;;8.10;100.00;99081.00;5073847;28;20474;-83
2022/01/30 01:57:22;;;;;;;9.83;3.10;;;7.50;99.90;;;8.09;100.00;99077.56;5079200;28;20971;-82
2022/01/30 01:59:52;;;;;;;7.03;2.83;;;7.40;99.90;;;8.09;100.00;99071.53;5078028;28;20495;-83
2022/01/30 02:02:23;;;;;;;14.20;3.40;;;7.50;99.90;;;8.01;100.00;99077.50;5081302;28;20454;-83
2022/01/30 02:04:57;;;;;;;14.20;3.53;;;7.40;99.90;;;7.98;100.00;99079.56;5076969;28;20494;-83
2022/01/30 02:07:56;;;;;;;18.43;2.90;;;7.40;99.90;;;7.99;100.00;99082.00;5074552;28;20482;-83
2022/01/30 02:10:32;;;;;;;12.00;4.00;;;7.50;99.90;;;7.91;100.00;99068.88;5079169;28;20478;-84
2022/01/30 02:13:16;;;;;;;11.20;2.70;;;7.40;99.90;;;7.90;100.00;99069.88;5077915;28;20561;-83
2022/01/30 02:24:13;;;;;;;18.17;2.27;;;7.20;99.90;;;7.89;100.00;99080.41;5073261;28;20463;-83
2022/01/30 02:26:46;;;;;;;18.70;3.10;;;7.30;99.90;;;7.87;100.00;99083.19;5077601;28;20528;-83
2022/01/30 02:29:17;;;;;;;19.73;2.73;;;7.30;99.90;;;7.87;100.00;99097.97;5078881;28;20563;-83
2022/01/30 02:31:46;;;;;;;9.60;3.00;;;7.40;99.90;;;7.86;100.00;99107.56;5074703;28;20529;-83
2022/01/30 02:34:16;;;;;;;16.93;2.97;;;7.30;99.90;;;7.84;100.00;99104.31;5075051;28;20457;-83
2022/01/30 02:36:49;;;;;;;15.87;3.30;;;7.20;99.90;;;7.86;100.00;99102.38;5078779;28;20471;-82
2022/01/30 02:39:20;;;;;;;18.23;2.83;;;7.20;99.90;;;7.84;100.00;99087.84;5074433;28;20490;-83
2022/01/30 02:41:50;;;;;;;13.73;2.97;;;7.30;99.90;;;7.75;100.00;99099.13;5078116;28;20475;-82
2022/01/30 02:44:23;;;;;;;16.40;2.57;;;7.20;99.90;;;7.76;100.00;99087.75;5073285;28;20808;-83
2022/01/30 02:46:59;;;;;;;14.17;2.43;;;7.30;99.90;;;7.76;100.00;99091.16;5068003;28;20500;-83
2022/01/30 02:49:45;;;;;;;6.20;2.60;;;7.20;99.90;;;7.71;100.00;99095.16;5071935;28;20464;-83
2022/01/30 02:52:16;;;;;;;9.77;2.50;;;7.10;99.90;;;7.63;100.00;99092.47;5078760;28;20560;-83
2022/01/30 02:54:48;;;;;;;7.30;2.30;;;7.00;99.90;;;7.63;100.00;99095.88;5077335;28;20455;-83
2022/01/30 02:57:19;;;;;;;7.77;2.40;;;7.00;99.90;;;7.65;100.00;99100.94;5077780;28;20471;-83
2022/01/30 02:59:50;;;;;;;4.20;2.20;;;7.00;99.90;;;7.62;100.00;99093.41;5076185;28;20463;-83
2022/01/30 03:02:20;;;;;;;17.00;3.53;;;7.00;99.90;;;7.64;100.00;99100.09;5081416;28;20464;-83
2022/01/30 03:04:51;;;;;;;19.17;3.37;;;7.00;99.90;;;7.56;100.00;99106.03;5077192;28;20486;-84
2022/01/30 03:07:21;;;;;;;15.17;2.70;;;7.00;99.90;;;7.55;100.00;99101.78;5072012;28;20494;-83
2022/01/30 03:09:54;;;;;;;15.13;3.30;;;7.00;99.90;;;7.51;100.00;99104.81;5074674;28;20466;-83
2022/01/30 03:12:24;;;;;;;7.07;2.47;;;7.00;99.90;;;7.52;100.00;99102.09;5079939;28;20883;-83
2022/01/30 03:14:54;;;;;;;23.70;2.90;;;7.00;99.90;;;7.51;100.00;99097.84;5075390;28;20468;-83
2022/01/30 03:17:24;;;;;;;13.07;2.83;;;6.90;99.90;;;7.52;100.00;99104.69;5068548;28;20552;-84
2022/01/30 03:19:54;;;;;;;8.13;2.90;;;7.00;99.90;;;7.52;100.00;99099.47;5073309;28;20473;-83
2022/01/30 03:22:27;;;;;;;16.37;2.90;;;7.00;99.90;;;7.51;100.00;99116.06;5073130;28;20885;-83
2022/01/30 03:24:58;;;;;;;9.70;2.57;;;7.00;99.90;;;7.50;100.00;99114.41;5072155;28;20470;-83
2022/01/30 03:27:29;;;;;;;5.70;2.60;;;6.90;99.90;;;7.47;100.00;99122.50;5068789;28;20706;-83
2022/01/30 03:30:04;;;;;;;17.33;2.10;;;6.90;99.90;;;7.47;100.00;99119.06;5077942;28;20448;-83
2022/01/30 03:32:36;;;;;;;10.23;2.70;;;6.90;99.90;;;7.47;100.00;99135.50;5076652;28;21556;-83
2022/01/30 03:35:07;;;;;;;17.23;2.70;;;6.80;99.90;;;7.46;100.00;99131.25;5072106;28;20968;-83
2022/01/30 03:37:37;;;;;;;13.67;2.97;;;6.80;99.90;;;7.44;100.00;99125.38;5073806;28;20468;-83
2022/01/30 03:40:13;;;;;;;8.03;2.43;;;6.90;99.90;;;7.42;100.00;99129.09;5072522;28;20461;-83
2022/01/30 03:42:42;;;;;;;10.97;2.30;;;6.90;99.90;;;7.36;100.00;99140.03;5072740;28;20529;-83
2022/01/30 03:45:13;;;;;;;10.50;2.57;;;6.80;99.90;;;7.38;100.00;99135.53;5070532;28;20476;-83
2022/01/30 03:47:44;;;;;;;23.83;2.80;;;6.80;99.90;;;7.40;100.00;99141.41;5074518;28;21053;-83
2022/01/30 03:50:14;;;;;;;15.03;2.60;;;6.70;99.90;;;7.43;100.00;99144.53;5071797;28;21023;-83
2022/01/30 03:52:45;;;;;;;8.93;2.67;;;6.80;99.90;;;7.37;100.00;99139.91;5073287;28;20463;-83
2022/01/30 03:55:15;;;;;;;7.70;2.67;;;6.80;99.90;;;7.41;100.00;99143.06;5071734;28;20504;-83
2022/01/30 03:57:45;;;;;;;8.40;3.30;;;6.90;99.90;;;7.40;100.00;99150.03;5074240;28;20512;-83
2022/01/30 04:00:15;;;;;;;7.80;2.63;;;6.80;99.90;;;7.41;100.00;99154.28;5073948;28;20488;-83
2022/01/30 04:02:46;;;;;;;13.00;1.93;;;6.80;99.90;;;7.43;100.00;99149.75;5072888;28;20926;-83
2022/01/30 04:05:16;;;;;;;8.07;2.80;;;6.80;99.90;;;7.40;100.00;99154.41;5072449;28;20531;-83
2022/01/30 04:07:47;;;;;;;6.63;2.43;;;6.80;99.90;;;7.37;100.00;99158.13;5074806;28;20538;-84
2022/01/30 04:10:19;;;;;;;13.00;3.50;;;6.80;99.90;;;7.30;100.00;99162.22;5076107;28;20463;-83
2022/01/30 04:12:51;;;;;;;2.90;1.57;;;6.70;99.90;;;7.30;100.00;99151.84;5080128;28;20463;-83
2022/01/30 04:15:26;;;;;;;12.23;2.20;;;6.70;99.90;;;7.31;100.00;99158.69;5075466;28;21006;-83
2022/01/30 04:17:58;;;;;;;5.03;1.43;;;6.70;99.90;;;7.25;100.00;99164.44;5066649;28;20986;-83
2022/01/30 04:20:30;;;;;;;8.70;1.90;;;6.60;99.90;;;7.22;100.00;99159.50;5070612;28;20463;-83
2022/01/30 04:23:00;;;;;;;9.70;3.17;;;6.60;99.90;;;7.23;100.00;99170.72;5074034;28;20741;-83
2022/01/30 04:25:32;;;;;;;5.27;2.00;;;6.60;99.90;;;7.22;100.00;99184.72;5072612;28;20455;-83
2022/01/30 04:28:02;;;;;;;2.50;1.80;;;6.60;99.90;;;7.10;100.00;99173.63;5068009;28;20575;-83
2022/01/30 04:30:33;;;;;;;18.53;2.60;;;6.50;99.90;;;7.06;100.00;99211.25;5073629;28;20467;-83
2022/01/30 04:33:04;;;;;;;6.57;1.47;;;6.60;99.90;;;7.01;100.00;99203.06;5069918;28;20464;-83
2022/01/30 04:35:38;;;;;;;15.70;2.13;;;6.60;99.90;;;6.92;100.00;99202.06;5067788;28;20535;-83
2022/01/30 04:38:20;;;;;;;15.00;2.67;;;6.50;99.90;;;6.95;100.00;99211.38;5072134;28;20463;-83
2022/01/30 04:57:49;;;;;;;5.60;1.93;;;6.40;99.90;;;6.96;100.00;99207.81;5074120;28;20603;-83
2022/01/30 05:00:51;;;;;;;3.43;1.70;;;6.40;99.90;;;6.98;100.00;99211.91;5074568;28;20531;-83
2022/01/30 05:03:43;;;;;;;2.70;1.30;;;6.40;99.90;;;6.90;100.00;99223.97;5069122;28;21232;-83
2022/01/30 05:06:16;;;;;;;22.63;2.30;;;6.30;99.90;;;6.86;100.00;99220.00;5070298;28;20967;-83
2022/01/30 05:08:47;;;;;;;6.53;1.70;;;6.40;99.90;;;6.80;100.00;99220.53;5070567;28;20994;-83
2022/01/30 05:11:16;;;;;;;16.43;1.80;;;6.30;99.90;;;6.68;100.00;99217.22;5072831;28;20471;-83
2022/01/30 05:13:50;;;;;;;6.27;2.50;;;6.20;99.90;;;6.68;100.00;99229.38;5076166;28;20444;-83
2022/01/30 05:16:23;;;;;;;7.30;2.20;;;6.10;99.90;;;6.68;100.00;99226.78;5071825;28;21012;-82
2022/01/30 05:18:57;;;;;;;8.30;2.07;;;6.20;99.90;;;6.60;100.00;99219.66;5074225;28;20468;-83
2022/01/30 05:21:28;;;;;;;7.40;2.70;;;6.00;99.90;;;6.61;100.00;99228.28;5071583;28;20536;-83
2022/01/30 05:24:01;;;;;;;7.93;2.00;;;6.00;99.90;;;6.62;100.00;99237.72;5070695;28;20475;-83
2022/01/30 05:26:34;;;;;;;13.97;1.90;;;6.00;99.90;;;6.49;100.00;99227.56;5071673;28;20874;-83
2022/01/30 05:29:08;;;;;;;8.20;2.50;;;6.00;99.90;;;6.52;100.00;99224.72;5074617;28;20495;-83
2022/01/30 05:31:41;;;;;;;8.47;2.30;;;6.00;99.90;;;6.54;100.00;99230.56;5061054;28;20812;-82
2022/01/30 05:34:11;;;;;;;4.23;1.83;;;6.00;99.90;;;6.46;100.00;99218.25;5063749;28;20553;-82
2022/01/30 05:36:45;;;;;;;70.13;38.07;;;5.90;99.90;;;6.46;100.00;99226.03;5072024;28;20460;-83
2022/01/30 05:39:17;;;;;;;19.53;3.47;;;5.90;99.90;;;6.48;100.00;99237.13;5075062;28;20967;-83
2022/01/30 05:41:48;;;;;;;12.50;2.67;;;6.00;99.90;;;6.43;100.00;99239.28;5071315;28;20530;-83
2022/01/30 05:44:22;;;;;;;8.00;2.57;;;5.90;99.90;;;6.45;100.00;99239.19;5075695;28;20589;-83
2022/01/30 05:46:56;;;;;;;15.70;3.23;;;6.00;99.90;;;6.43;100.00;99235.88;5060464;28;20471;-83
2022/01/30 05:49:28;;;;;;;12.10;3.43;;;6.00;99.90;;;6.43;100.00;99243.66;5073657;28;20498;-82
2022/01/30 05:51:58;;;;;;;15.20;3.93;;;6.00;99.90;;;6.34;100.00;99249.66;5062292;28;20522;-83
2022/01/30 05:54:28;;;;;;;6.57;2.50;;;5.70;99.90;;;6.33;100.00;99263.59;5064233;28;20538;-82
2022/01/30 05:56:58;;;;;;;9.57;2.90;;;5.70;99.90;;;6.28;100.00;99276.16;5068786;28;20544;-82
2022/01/30 05:59:29;;;;;;;5.10;1.80;;;5.80;99.90;;;6.22;100.00;99287.88;5066808;28;20472;-82
2022/01/30 06:01:59;;;;;;;13.03;2.70;;;5.70;99.90;;;6.18;100.00;99283.88;5073735;28;20493;-82
2022/01/30 06:04:29;;;;;;;9.13;3.30;;;5.70;99.90;;;6.19;100.00;99287.28;5070803;28;20470;-82
2022/01/30 06:07:00;;;;;;;13.07;2.53;;;5.70;99.90;;;6.17;100.00;99284.84;5072330;28;20998;-82
2022/01/30 06:09:30;;;;;;;10.17;2.27;;;5.70;99.90;;;6.14;100.00;99290.31;5072762;28;20493;-82
2022/01/30 06:12:00;;;;;;;11.67;2.43;;;5.60;99.90;;;6.08;100.00;99288.19;5073624;28;20455;-82
2022/01/30 06:14:31;;;;;;;7.43;2.60;;;5.50;99.90;;;6.08;100.00;99273.44;5071597;28;20954;-82
2022/01/30 06:17:01;;;;;;;7.43;2.33;;;5.50;99.90;;;6.11;100.00;99282.75;5069472;28;20968;-82
2022/01/30 06:19:32;;;;;;;15.50;2.80;;;5.60;99.90;;;6.10;100.00;99283.72;5063134;28;20913;-82
2022/01/30 06:22:02;;;;;;;9.90;2.03;;;5.60;99.90;;;6.03;100.00;99287.78;5072607;28;21447;-82
2022/01/30 06:24:31;;;;;;;8.43;2.73;;;5.50;99.90;;;5.97;100.00;99294.28;5074378;28;20471;-82
2022/01/30 06:27:01;;;;;;;10.17;1.93;;;5.40;99.90;;;5.99;100.00;99294.16;5068907;28;20564;-77
2022/01/30 06:29:35;;;;;;;9.97;2.47;;;5.40;99.90;;;6.02;100.00;99297.31;5070123;28;20641;-77
2022/01/30 06:32:06;;;;;;;10.60;2.53;;;5.40;99.90;;;5.97;100.00;99301.25;5066119;28;20573;-78
2022/01/30 06:34:37;;;;;;;8.30;2.17;;;5.50;99.90;;;5.95;100.00;99306.56;5066349;28;20466;-77
2022/01/30 06:37:06;;;;;;;11.20;1.70;;;5.40;99.90;;;5.94;100.00;99310.09;5071077;28;21027;-77
2022/01/30 06:39:37;;;;;;;9.83;2.33;;;5.30;99.90;;;5.91;100.00;99314.72;5071381;28;20472;-83
2022/01/30 06:42:09;;;;;;;16.33;3.03;;;5.30;99.90;;;5.86;100.00;99316.91;5074977;28;20488;-77
2022/01/30 06:44:44;;;;;;;8.60;2.30;;;5.30;99.90;;;5.82;100.00;99311.09;5073091;28;20460;-78
2022/01/30 06:47:16;;;;;;;5.40;2.13;;;5.30;99.90;;;5.80;100.00;99322.53;5077142;28;20484;-78
2022/01/30 06:49:50;;;;;;;11.63;2.37;;;5.30;99.90;;;5.73;100.00;99311.00;5077776;28;20843;-78
2022/01/30 06:52:20;;;;;;;12.17;2.20;;;5.30;99.90;;;5.67;100.00;99316.69;5078196;28;20446;-78
2022/01/30 06:54:49;;;;;;;11.30;2.10;;;5.20;99.90;;;5.70;100.00;99322.47;5077885;28;20440;-78
2022/01/30 06:57:21;;;;;;;16.47;3.03;;;5.20;99.90;;;5.70;100.00;99312.09;5078401;28;20447;-78
2022/01/30 06:59:52;;;;;;;5.40;1.97;;;5.10;99.90;;;5.69;100.00;99317.41;5076615;28;20443;-78
2022/01/30 07:02:22;;;;;;;11.50;2.30;;;5.20;99.90;;;5.70;100.00;99322.47;5079664;28;20451;-77
2022/01/30 07:04:52;;;;;;;10.13;2.30;;;5.20;99.90;;;5.71;100.00;99333.66;5074348;28;20455;-78
2022/01/30 07:07:22;;;;;;;15.30;2.10;;;5.10;99.90;;;5.69;100.00;99320.84;5080030;28;20549;-77
2022/01/30 07:09:53;;;;;;;12.73;2.10;;;5.20;99.90;;;5.75;100.00;99327.28;5077483;28;20474;-78
2022/01/30 07:12:23;;;;;;;10.17;2.57;;;5.20;99.90;;;5.73;100.00;99336.94;5076642;28;20443;-78
2022/01/30 07:14:55;;;;;;;10.47;2.20;;;5.10;99.90;;;5.77;100.00;99346.13;5076733;28;20435;-78
2022/01/30 07:17:27;;;;;;;11.07;2.50;;;5.10;99.90;;;5.73;100.00;99335.19;5077303;28;20555;-78
2022/01/30 07:19:56;;;;;;;6.10;2.83;;;5.10;99.90;;;5.75;100.00;99332.47;5078044;28;20525;-78
2022/01/30 07:22:27;;;;;;;5.87;2.23;;;5.20;99.90;;;5.74;100.00;99342.03;5077177;28;20447;-78
2022/01/30 07:24:57;;;;;;;9.60;2.80;;;5.20;99.90;;;5.69;100.00;99340.78;5079348;28;20445;-78
2022/01/30 07:27:26;;;;;;;15.13;2.67;;;5.30;99.90;;;5.70;100.00;99332.00;5077784;28;20518;-78
2022/01/30 07:29:58;;;;;;;13.87;2.30;;;5.20;99.90;;;5.72;100.00;99345.72;5077497;28;20483;-78
2022/01/30 07:32:29;;;;;;;13.33;2.27;;;5.30;99.90;;;5.74;100.00;99354.19;5078656;28;20527;-77
2022/01/30 07:34:59;;;;;;;10.00;2.17;;;5.20;99.90;;;5.79;100.00;99339.06;5075932;28;20441;-78
2022/01/30 07:37:29;;;;;;;10.83;2.87;;;5.30;99.90;;;5.75;100.00;99350.66;5076165;28;20436;-78
2022/01/30 07:40:00;;;;;;;16.47;2.30;;;5.10;99.90;;;5.78;100.00;99347.78;5075669;28;20459;-78
2022/01/30 07:42:29;;;;;;;5.53;1.67;;;5.20;99.90;;;5.78;100.00;99338.25;5070284;28;20608;-78
2022/01/30 07:44:59;;;;;;;7.67;2.07;;;5.20;99.90;;;5.81;100.00;99338.00;5074198;28;21106;-78
2022/01/30 07:47:29;;;;;;;12.40;2.00;;;5.30;99.90;;;5.72;100.00;99328.38;5072086;28;20509;-78
2022/01/30 07:49:59;;;;;;;5.87;1.70;;;5.30;99.90;;;5.75;100.00;99340.25;5071832;28;20587;-78
2022/01/30 07:52:29;;;;;;;3.70;2.57;;;5.30;99.90;;;5.69;100.00;99335.59;5077120;28;20476;-78
2022/01/30 07:54:59;;;;;;;9.00;2.00;;;5.20;99.90;;;5.69;100.00;99339.00;5074182;28;20462;-78
2022/01/30 07:57:29;;;;;;;12.03;2.47;;;5.30;99.90;;;5.68;100.00;99332.16;5067331;28;20940;-78
2022/01/30 08:00:00;;;;;;;9.80;1.90;;;5.20;99.90;;;5.69;100.00;99346.78;5067574;28;20810;-80
2022/01/30 08:02:30;;;;;;;15.47;3.37;;;5.20;99.90;;;5.72;100.00;99353.50;5067365;28;20490;-78
2022/01/30 08:05:01;;;;;;;6.90;1.60;;;5.10;99.90;;;5.72;100.00;99353.50;5062275;28;20538;-78
2022/01/30 08:07:31;;;;;;;10.27;1.83;;;5.20;99.90;;;5.72;100.00;99356.09;5067222;28;20873;-78
2022/01/30 08:10:01;;;;;;;7.73;1.50;;;5.30;99.90;;;5.72;100.00;99367.28;5065120;28;20484;-79
2022/01/30 08:12:30;;;;;;;4.00;1.60;;;5.30;99.90;;;5.73;100.00;99368.09;5068308;28;21032;-78
2022/01/30 08:15:01;;;;;;;9.60;2.00;;;5.20;99.90;;;5.74;100.00;99375.78;5066060;28;21043;-79
2022/01/30 08:17:33;;;;;;;10.60;2.30;;;5.30;99.90;;;5.71;100.00;99375.19;5061067;28;25711;-78
2022/01/30 08:20:02;;;;;;;15.93;2.43;;;5.20;99.90;;;5.71;100.00;99382.97;5063973;28;20456;-78
2022/01/30 08:22:33;;;;;;;19.97;2.10;;;5.30;99.90;;;5.78;100.00;99386.72;5061929;28;20525;-78
2022/01/30 08:25:02;;;;;;;5.13;1.00;;;5.30;99.90;;;5.78;100.00;99382.38;5065522;28;20924;-78
2022/01/30 08:27:35;;;;;;;1.20;1.10;;;5.30;99.90;;;5.84;100.00;99387.06;5069343;28;20657;-78
2022/01/30 08:30:08;;;;;;;4.60;1.50;;;5.30;99.90;;;5.82;100.00;99398.50;5065503;28;20459;-78
2022/01/30 08:32:41;;;;;;;4.30;1.27;;;5.40;99.90;;;5.83;100.00;99405.34;5064688;28;20463;-78
2022/01/30 08:35:15;;;;;;;8.33;1.90;;;5.40;99.90;;;5.84;100.00;99409.59;5064534;28;20648;-78
2022/01/30 08:37:47;;;;;;;8.10;1.83;;;5.50;99.90;;;5.87;100.00;99412.78;5064704;28;20464;-78
2022/01/30 08:40:20;;;;;;;12.93;2.03;;;5.50;99.90;;;5.89;100.00;99394.50;5064217;28;21461;-79
2022/01/30 08:42:51;;;;;;;4.90;1.10;;;5.40;99.90;;;5.91;100.00;99401.22;5066985;28;20481;-79
2022/01/30 08:45:23;;;;;;;2.90;1.23;;;5.50;99.90;;;5.81;100.00;99402.88;5076811;28;20460;-78
2022/01/30 08:47:54;;;;;;;24.13;2.37;;;5.30;99.90;;;5.91;100.00;99402.97;5058053;28;20457;-77
2022/01/30 08:50:24;;;;;;;2.60;1.63;;;5.30;99.90;;;5.96;100.00;99404.28;5065784;28;21201;-76
2022/01/30 08:52:54;;;;;;;5.10;1.27;;;5.40;99.90;;;5.95;100.00;99402.63;5065677;28;20553;-76
2022/01/30 08:55:25;;;;;;;10.77;1.33;;;5.40;99.90;;;5.95;100.00;99404.38;5063266;28;20463;-76
2022/01/30 08:57:54;;;;;;;2.30;1.10;;;5.40;99.90;;;5.97;100.00;99403.31;5069094;28;20504;-77
2022/01/30 09:00:26;;;;;;;4.00;1.30;;;5.50;99.90;;;5.98;100.00;99409.31;5066470;28;21866;-77
2022/01/30 09:02:59;;;;;;;2.03;1.50;;;5.40;99.90;;;6.02;100.00;99415.91;5065970;28;20618;-76
2022/01/30 09:05:30;;;;;;;1.83;1.73;;;5.40;99.90;;;6.03;100.00;99413.22;5064275;28;20963;-77
2022/01/30 09:07:59;;;;;;;1.23;1.13;;;5.40;99.90;;;6.04;100.00;99417.44;5067197;28;20576;-78
2022/01/30 09:10:28;;;;;;;0.80;0.80;;;5.50;99.90;;;6.07;100.00;99430.16;5062447;28;20807;-76
2022/01/30 09:12:58;;;;;;;1.03;0.93;;;5.50;99.90;;;6.10;100.00;99430.88;5066737;28;20456;-77
2022/01/30 09:15:28;;;;;;;1.30;1.20;;;5.50;99.90;;;6.07;100.00;99444.94;5068888;28;20456;-77
2022/01/30 09:18:01;;;;;;;1.20;0.90;;;5.50;99.90;;;6.06;100.00;99438.94;5069121;28;20487;-77
2022/01/30 09:20:32;;;;;;;1.73;0.90;;;5.50;99.90;;;6.13;100.00;99434.06;5067386;28;20456;-77
2022/01/30 09:23:02;;;;;;;2.13;1.50;;;5.50;99.90;;;6.08;100.00;99434.41;5065394;28;20469;-77
2022/01/30 09:25:32;;;;;;;2.70;0.90;;;5.50;99.90;;;6.02;100.00;99437.53;5066860;28;20451;-78
2022/01/30 09:28:01;;;;;;;1.20;1.10;;;5.50;99.90;;;6.01;100.00;99433.25;5063967;28;20621;-76
2022/01/30 09:30:32;;;;;;;1.00;0.80;;;5.40;99.90;;;6.04;100.00;99430.41;5062708;28;20470;-77
2022/01/30 09:33:10;;;;;;;0.80;0.80;;;5.50;99.90;;;6.07;100.00;99426.78;5063353;28;20459;-77
2022/01/30 09:35:41;;;;;;;2.73;1.23;;;5.50;99.90;;;6.09;100.00;99419.66;5067437;28;20868;-77
2022/01/30 09:38:11;;;;;;;1.00;0.90;;;5.60;99.90;;;6.10;100.00;99423.94;5065121;28;20518;-77
2022/01/30 09:40:41;;;;;;;3.00;0.90;;;5.60;99.90;;;6.15;100.00;99423.53;5059868;28;20468;-77
2022/01/30 09:43:11;;;;;;;0.73;0.73;;;5.50;99.90;;;6.19;100.00;99428.34;5064847;28;20875;-77
2022/01/30 09:45:43;;;;;;;97.10;31.67;;;5.60;99.90;;;6.18;100.00;99429.28;5072267;28;20474;-76
2022/01/30 09:48:14;;;;;;;13.37;3.07;;;5.60;99.90;;;6.16;100.00;99430.38;5070876;28;20847;-77
2022/01/30 09:50:44;;;;;;;5.60;2.00;;;5.60;99.90;;;6.16;100.00;99423.41;5070340;28;20834;-77
2022/01/30 09:53:19;;;;;;;9.10;1.67;;;5.50;99.90;;;6.18;100.00;99424.09;5069172;28;20478;-76
2022/01/30 09:55:48;;;;;;;23.03;9.60;;;5.60;99.90;;;6.13;100.00;99420.25;5070461;28;20571;-77
2022/01/30 09:58:18;;;;;;;3.53;1.30;;;5.60;99.90;;;6.13;100.00;99425.44;5070051;28;20461;-76
2022/01/30 10:00:57;;;;;;;2.20;1.20;;;5.60;99.90;;;6.16;100.00;99418.22;5082037;28;20487;-77
2022/01/30 10:03:27;;;;;;;1.70;1.43;;;5.70;99.90;;;6.13;100.00;99410.69;5077589;28;20940;-76
2022/01/30 10:06:12;;;;;;;5.80;2.63;;;5.70;99.90;;;6.16;100.00;99410.44;5071254;28;21048;-76
2022/01/30 10:08:46;;;;;;;12.10;2.00;;;5.70;99.90;;;6.07;100.00;99414.59;5074655;28;20495;-76
2022/01/30 10:11:29;;;;;;;2.93;1.40;;;5.60;99.90;;;6.07;100.00;99424.19;5070790;28;20577;-76
2022/01/30 10:14:11;;;;;;;3.60;1.73;;;5.50;99.90;;;6.16;100.00;99418.22;5070913;28;20850;-76
2022/01/30 10:16:46;;;;;;;2.50;1.57;;;5.70;99.90;;;6.20;100.00;99419.63;5070752;28;20483;-76
2022/01/30 10:19:20;;;;;;;7.13;2.13;;;5.70;99.90;;;6.24;100.00;99415.84;5069782;28;20470;-76
2022/01/30 10:21:51;;;;;;;4.07;1.60;;;5.80;99.90;;;6.32;100.00;99425.56;5072159;28;20464;-76
2022/01/30 10:24:26;;;;;;;6.87;1.70;;;5.90;99.90;;;6.28;100.00;99425.00;5070443;28;20464;-76
2022/01/30 10:26:59;;;;;;;4.00;1.67;;;5.70;99.90;;;6.36;100.00;99424.38;5070888;28;20725;-75
2022/01/30 10:29:32;;;;;;;4.23;1.43;;;5.80;99.90;;;6.38;100.00;99425.09;5065714;28;20460;-75
2022/01/30 10:32:08;;;;;;;1.20;1.10;;;5.80;99.90;;;6.40;100.00;99417.97;5068835;28;20507;-79
2022/01/30 10:34:40;;;;;;;1.93;1.10;;;5.90;99.90;;;6.41;100.00;99422.22;5074311;28;20462;-76
2022/01/30 10:37:22;;;;;;;3.27;2.50;;;5.90;99.90;;;6.46;100.00;99433.88;5075590;28;20448;-80
2022/01/30 10:40:35;;;;;;;3.20;1.70;;;6.00;99.90;;;6.36;99.84;99420.00;5073707;28;20517;-79
2022/01/30 10:43:05;;;;;;;1.53;1.10;;;6.00;99.90;;;6.36;99.65;99426.97;5071287;28;20579;-78
2022/01/30 10:45:34;;;;;;;6.63;0.90;;;5.90;99.90;;;6.34;100.00;99429.72;5072049;28;20492;-79
2022/01/30 10:48:16;;;;;;;3.23;0.87;;;5.80;99.90;;;6.39;100.00;99418.91;5071393;28;20522;-78
2022/01/30 10:50:49;;;;;;;1.13;1.00;;;5.80;99.90;;;6.43;100.00;99425.50;5073306;28;20890;-79
2022/01/30 10:53:23;;;;;;;1.83;1.27;;;5.90;99.90;;;6.41;99.97;99419.63;5070311;28;20543;-79
2022/01/30 10:55:53;;;;;;;5.10;2.60;;;5.90;99.90;;;6.43;98.67;99415.94;5073373;28;20463;-79
2022/01/30 10:58:24;;;;;;;8.30;2.00;;;6.00;99.90;;;6.44;97.92;99416.78;5068209;28;20561;-79
2022/01/30 11:00:55;;;;;;;6.97;1.83;;;6.00;99.90;;;6.50;97.47;99417.09;5073457;28;20488;-79
2022/01/30 11:03:44;;;;;;;5.00;1.60;;;6.00;99.90;;;6.45;96.90;99397.66;5074744;28;20491;-79
2022/01/30 11:06:15;;;;;;;1.67;1.53;;;6.00;99.90;;;6.49;97.23;99405.03;5073382;28;20470;-79
2022/01/30 11:08:48;;;;;;;0.93;0.77;;;6.10;99.90;;;6.54;96.60;99402.06;5069186;28;20963;-79
2022/01/30 11:11:29;;;;;;;5.73;1.43;;;6.20;99.90;;;6.57;97.74;99400.03;5066735;28;20482;-79
2022/01/30 11:14:13;;;;;;;6.63;1.80;;;6.10;99.90;;;6.63;97.41;99403.88;5080152;28;20455;-79
2022/01/30 11:16:56;;;;;;;9.97;1.70;;;6.20;99.90;;;6.69;98.06;99399.97;5081030;28;20885;-79
2022/01/30 11:19:28;;;;;;;7.80;1.53;;;6.20;99.90;;;6.72;98.13;99399.72;5080137;28;20470;-78